Flugplatz Falkenberg-Lönnewitz

Für EDUF sind keine METAR/TAF Berichte vorhanden.
Es werden die Flugwettermeldungen vom Flugplatz Holzdorf Airport in 24 km Entfernung angezeigt.

Bericht für ETSH

vom 23.05. um 18:20 UTC

Wind 2 kt aus 40°

Sichtweite 10 km oder mehr

gering bewölkt in 6000 ft

aufgelockert bewölkt in 22000 ft

aufgebrochene Bewölkung in 28000 ft

Temperatur 16.0°C

Taupunkt 6.0°C

Luftfeuchtigkeit 51%

Luftdruck 1017 hPa

ETSH 231820Z 04002KT 9999 FEW060 SCT220 BKN280 16/06 Q1017 BLU+BLU+

Prognose für ETSH

vom 23.05. um 13:13 UTC

Zwischen 14:00 UTC und 23:00 UTC

Wind 8 kt aus 320°

Sichtweite 10 km oder mehr

keine signifikanten Wettererscheinungen

gering bewölkt in 5000 ft

aufgelockert bewölkt in 25000 ft

TAF ETSH 231313Z 2314/2323 32008KT 9999 NSW FEW050 SCT250
Impressum